Manila Express — VRCX7 — position and weather

sailwx.info

Track history (hours):
 
Tides and Currents Weather Stations Pressure Air Temp Water Temp Dewpoint Dewpoint Depression Visibility Wind Speed Wind Dir Waves Ship Positions

Manila Express

Last reported at 2017-Mar-22 17:30 UTC. Time now 2017-Mar-27 18:25 UTC.
Position N 09°14' W 079°55'.

Length 260 m; draft 11.8 m.

Type: Ship (hazmat cat A). MMSI: 477830800.

Date/timePositionNaut miles runAvg speedWind from/ knotsBaromVisibWave heightAir tempDewpointWater temp
2017-Mar-22 17:30N 09°14' W 079°55'1 1.0
2017-Mar-22 16:27N 09°15' W 079°55'0 0.0
2017-Mar-22 15:33N 09°15' W 079°55'0 0.0
2017-Mar-22 13:12N 09°15' W 079°55'0 0.0
2017-Mar-22 12:33N 09°15' W 079°55'0 0.1
2017-Mar-22 11:30N 09°15' W 079°55'1 0.8
2017-Mar-22 10:33N 09°16' W 079°55'1 0.6
2017-Mar-22 09:33N 09°17' W 079°55'1 0.7
2017-Mar-22 08:33N 09°17' W 079°55'5 5.3
2017-Mar-22 07:33N 09°23' W 079°55'4 4.0
2017-Mar-22 06:32N 09°26' W 079°57'0 0.0
2017-Mar-22 05:33N 09°26' W 079°57'0 0.0
2017-Mar-22 04:33N 09°26' W 079°57'0 0.0
2017-Mar-22 03:33N 09°26' W 079°57'0 0.0
2017-Mar-22 02:33N 09°26' W 079°57'0 0.0
2017-Mar-22 01:33N 09°26' W 079°57'0 0.0
2017-Mar-22 00:33N 09°26' W 079°57'0 0.0
2017-Mar-21 23:33N 09°26' W 079°57'0 0.0
2017-Mar-21 22:33N 09°26' W 079°57'0 0.0
2017-Mar-21 21:32N 09°26' W 079°57'6 6.4
2017-Mar-21 20:33N 09°31' W 079°53'  
2017-Mar-18 11:33N 16°12' W 062°46'2718.8
2017-Mar-18 10:06N 16°22' W 062°19'1019.4
2017-Mar-18 09:34N 16°26' W 062°09'1918.7
2017-Mar-18 08:34N 16°34' W 061°52'1918.7
2017-Mar-18 07:34N 16°46' W 061°36'1818.5
2017-Mar-18 06:34N 16°56' W 061°20'1818.1
2017-Mar-18 05:34N 17°06' W 061°05'  
2017-Mar-13 17:33N 32°03' W 028°44'1918.2
2017-Mar-13 16:30N 32°09' W 028°22'1918.0
2017-Mar-13 15:29N 32°15' W 028°02'1617.7
2017-Mar-13 14:33N 32°20' W 027°43'30218.3
2017-Mar-12 22:04N 33°50' W 021°59'1118.3
2017-Mar-12 21:29N 33°53' W 021°47'3818.8
2017-Mar-12 19:29N 34°04' W 021°03'2318.7
2017-Mar-12 18:16N 34°10' W 020°37'  
Track history (hours):
 
Tides and Currents Weather Stations Pressure Air Temp Water Temp Dewpoint Dewpoint Depression Visibility Wind Speed Wind Dir Waves Ship Positions

Manila Express

Last reported at 2017-Mar-22 17:30 UTC. Time now 2017-Mar-27 18:25 UTC.
Position N 09°14' W 079°55'.

Length 260 m; draft 11.8 m.

Type: Ship (hazmat cat A). MMSI: 477830800.

Date/timePositionNaut miles runAvg speedWind from/ knotsBaromVisibWave heightAir tempDewpointWater temp
2017-Mar-22 17:30N 09°14' W 079°55'1 1.0
2017-Mar-22 16:27N 09°15' W 079°55'0 0.0
2017-Mar-22 15:33N 09°15' W 079°55'0 0.0
2017-Mar-22 13:12N 09°15' W 079°55'0 0.0
2017-Mar-22 12:33N 09°15' W 079°55'0 0.1
2017-Mar-22 11:30N 09°15' W 079°55'1 0.8
2017-Mar-22 10:33N 09°16' W 079°55'1 0.6
2017-Mar-22 09:33N 09°17' W 079°55'1 0.7
2017-Mar-22 08:33N 09°17' W 079°55'5 5.3
2017-Mar-22 07:33N 09°23' W 079°55'4 4.0
2017-Mar-22 06:32N 09°26' W 079°57'0 0.0
2017-Mar-22 05:33N 09°26' W 079°57'0 0.0
2017-Mar-22 04:33N 09°26' W 079°57'0 0.0
2017-Mar-22 03:33N 09°26' W 079°57'0 0.0
2017-Mar-22 02:33N 09°26' W 079°57'0 0.0
2017-Mar-22 01:33N 09°26' W 079°57'0 0.0
2017-Mar-22 00:33N 09°26' W 079°57'0 0.0
2017-Mar-21 23:33N 09°26' W 079°57'0 0.0
2017-Mar-21 22:33N 09°26' W 079°57'0 0.0
2017-Mar-21 21:32N 09°26' W 079°57'6 6.4
2017-Mar-21 20:33N 09°31' W 079°53'  
2017-Mar-18 11:33N 16°12' W 062°46'2718.8
2017-Mar-18 10:06N 16°22' W 062°19'1019.4
2017-Mar-18 09:34N 16°26' W 062°09'1918.7
2017-Mar-18 08:34N 16°34' W 061°52'1918.7
2017-Mar-18 07:34N 16°46' W 061°36'1818.5
2017-Mar-18 06:34N 16°56' W 061°20'1818.1
2017-Mar-18 05:34N 17°06' W 061°05'  
2017-Mar-13 17:33N 32°03' W 028°44'1918.2
2017-Mar-13 16:30N 32°09' W 028°22'1918.0
2017-Mar-13 15:29N 32°15' W 028°02'1617.7
2017-Mar-13 14:33N 32°20' W 027°43'30218.3
2017-Mar-12 22:04N 33°50' W 021°59'1118.3
2017-Mar-12 21:29N 33°53' W 021°47'3818.8
2017-Mar-12 19:29N 34°04' W 021°03'2318.7
2017-Mar-12 18:16N 34°10' W 020°37'  

Dump ship's entire track history